createdAt,value
2022-10-30T00:02:27.966Z,14.48
2022-10-30T00:05:01.870Z,14.46
2022-10-30T00:07:35.563Z,14.44
2022-10-30T00:10:10.393Z,14.40
2022-10-30T00:12:44.218Z,14.36
2022-10-30T00:15:18.140Z,14.36
2022-10-30T00:17:53.011Z,14.35
2022-10-30T00:20:26.749Z,14.37
2022-10-30T00:23:00.746Z,14.36
2022-10-30T00:25:35.937Z,14.35
2022-10-30T00:28:09.674Z,14.32
2022-10-30T00:30:43.479Z,14.32
2022-10-30T00:33:18.292Z,14.32
2022-10-30T00:35:52.003Z,14.32
2022-10-30T00:38:25.568Z,14.31
2022-10-30T00:40:59.264Z,14.29
2022-10-30T00:43:36.480Z,14.27
2022-10-30T00:46:19.429Z,14.27
2022-10-30T00:48:59.163Z,14.25
2022-10-30T00:51:34.654Z,14.23
2022-10-30T00:54:10.356Z,14.20
2022-10-30T00:56:44.578Z,14.18
2022-10-30T00:59:24.064Z,14.17
2022-10-30T01:01:58.777Z,14.18
2022-10-30T01:04:37.458Z,14.14
2022-10-30T01:07:13.960Z,14.11
2022-10-30T01:09:48.486Z,14.10
2022-10-30T01:12:22.182Z,14.07
2022-10-30T01:14:59.533Z,14.05
2022-10-30T01:18:16.196Z,14.03
2022-10-30T01:21:10.648Z,13.99
2022-10-30T01:23:55.535Z,13.98
2022-10-30T01:26:39.889Z,13.99
2022-10-30T01:29:32.430Z,14.02
2022-10-30T01:32:20.357Z,14.04
2022-10-30T01:35:00.584Z,14.04
2022-10-30T01:37:41.621Z,14.05
2022-10-30T01:40:18.181Z,14.07
2022-10-30T01:42:54.184Z,14.09
2022-10-30T01:45:42.183Z,14.06
2022-10-30T01:48:34.270Z,14.08
2022-10-30T01:51:19.168Z,14.06
2022-10-30T01:54:01.433Z,14.06
2022-10-30T01:56:41.111Z,14.05
2022-10-30T01:59:18.826Z,14.02
2022-10-30T02:01:53.371Z,14.00
2022-10-30T02:04:28.054Z,13.96
2022-10-30T02:07:02.010Z,13.94
2022-10-30T02:09:36.982Z,13.93
2022-10-30T02:12:11.579Z,13.90
2022-10-30T02:14:48.938Z,13.86
2022-10-30T02:17:23.138Z,13.85
2022-10-30T02:19:56.636Z,13.83
2022-10-30T02:22:32.338Z,13.80
2022-10-30T02:25:06.599Z,13.77
2022-10-30T02:27:40.616Z,13.76
2022-10-30T02:30:14.790Z,13.73
2022-10-30T02:32:48.645Z,13.72
2022-10-30T02:35:22.151Z,13.69
2022-10-30T02:37:57.404Z,13.67
2022-10-30T02:40:31.362Z,13.67
2022-10-30T02:43:05.341Z,13.68
2022-10-30T02:45:39.001Z,13.67
2022-10-30T02:48:12.706Z,13.65
2022-10-30T02:50:46.209Z,13.61
2022-10-30T02:53:21.266Z,13.57
2022-10-30T02:55:54.786Z,13.55
2022-10-30T02:58:28.446Z,13.52
2022-10-30T03:01:06.944Z,13.49
2022-10-30T03:03:41.046Z,13.45
2022-10-30T03:06:16.623Z,13.41
2022-10-30T03:08:52.186Z,13.41
2022-10-30T03:11:25.616Z,13.40
2022-10-30T03:13:59.317Z,13.41
2022-10-30T03:16:33.662Z,13.42
2022-10-30T03:19:07.836Z,13.40
2022-10-30T03:21:41.458Z,13.41
2022-10-30T03:24:16.826Z,13.39
2022-10-30T03:26:50.268Z,13.36
2022-10-30T03:29:24.103Z,13.30
2022-10-30T03:31:57.624Z,13.28
2022-10-30T03:34:31.355Z,13.30
2022-10-30T03:37:04.902Z,13.29
2022-10-30T03:39:40.101Z,13.27
2022-10-30T03:42:13.557Z,13.24
2022-10-30T03:44:47.335Z,13.22
2022-10-30T03:47:20.788Z,13.21
2022-10-30T03:49:54.420Z,13.21
2022-10-30T03:52:28.460Z,13.20
2022-10-30T03:55:03.491Z,13.18
2022-10-30T03:57:37.810Z,13.15
2022-10-30T04:00:13.167Z,13.10
2022-10-30T04:02:47.678Z,13.07
2022-10-30T04:05:23.191Z,13.04
2022-10-30T04:07:58.029Z,12.99
2022-10-30T04:10:33.047Z,12.98
2022-10-30T04:13:08.353Z,12.95
2022-10-30T04:15:42.879Z,12.97
2022-10-30T04:18:17.266Z,12.97
2022-10-30T04:20:50.960Z,12.98
2022-10-30T04:23:24.376Z,12.99
2022-10-30T04:26:01.279Z,13.03
2022-10-30T04:28:34.757Z,13.03
2022-10-30T04:31:08.417Z,13.04
2022-10-30T04:33:41.943Z,13.03
2022-10-30T04:36:17.882Z,13.00
2022-10-30T04:38:51.301Z,12.95
2022-10-30T04:41:26.580Z,12.94
2022-10-30T04:44:00.075Z,12.90
2022-10-30T04:46:34.158Z,12.89
2022-10-30T04:49:07.939Z,12.84
2022-10-30T04:51:41.712Z,12.83
2022-10-30T04:54:15.276Z,12.81
2022-10-30T04:56:50.381Z,12.78
2022-10-30T04:59:23.891Z,12.78
2022-10-30T05:01:57.582Z,12.78
2022-10-30T05:04:31.145Z,12.79
2022-10-30T05:07:04.854Z,12.81
2022-10-30T05:09:38.462Z,12.80
2022-10-30T05:12:13.614Z,12.80
2022-10-30T05:14:47.143Z,12.79
2022-10-30T05:17:21.478Z,12.82
2022-10-30T05:19:56.628Z,12.87
2022-10-30T05:22:30.349Z,12.85
2022-10-30T05:25:04.103Z,12.81
2022-10-30T05:27:39.449Z,12.80
2022-10-30T05:30:13.637Z,12.77
2022-10-30T05:32:47.334Z,12.75
2022-10-30T05:35:20.845Z,12.73
2022-10-30T05:37:54.666Z,12.72
2022-10-30T05:40:28.783Z,12.69
2022-10-30T05:43:04.235Z,12.66
2022-10-30T05:45:37.793Z,12.67
2022-10-30T05:48:11.563Z,12.64
2022-10-30T05:50:45.195Z,12.64
2022-10-30T05:53:18.926Z,12.63
2022-10-30T05:55:52.497Z,12.64
2022-10-30T05:58:27.668Z,12.64
2022-10-30T06:01:01.538Z,12.62
2022-10-30T06:03:35.176Z,12.59
2022-10-30T06:06:08.786Z,12.55
2022-10-30T06:08:42.660Z,12.54
2022-10-30T06:11:16.217Z,12.52
2022-10-30T06:13:51.265Z,12.52
2022-10-30T06:16:24.840Z,12.50
2022-10-30T06:18:58.847Z,12.49
2022-10-30T06:21:32.436Z,12.50
2022-10-30T06:24:06.997Z,12.52
2022-10-30T06:26:40.670Z,12.54
2022-10-30T06:29:15.806Z,12.55
2022-10-30T06:31:49.320Z,12.57
2022-10-30T06:34:23.114Z,12.58
2022-10-30T06:36:56.620Z,12.60
2022-10-30T06:39:30.894Z,12.62
2022-10-30T06:42:04.604Z,12.63
2022-10-30T06:44:39.642Z,12.69
2022-10-30T06:47:13.213Z,12.77
2022-10-30T06:49:46.912Z,12.83
2022-10-30T06:52:22.996Z,12.88
2022-10-30T06:54:56.771Z,12.92
2022-10-30T06:57:30.365Z,12.89
2022-10-30T07:00:07.447Z,12.91
2022-10-30T07:02:41.188Z,12.98
2022-10-30T07:05:15.137Z,13.08
2022-10-30T07:07:48.588Z,13.12
2022-10-30T07:10:22.247Z,13.30
2022-10-30T07:12:57.421Z,13.58
2022-10-30T07:15:33.063Z,14.13
2022-10-30T07:18:07.068Z,14.28
2022-10-30T07:20:40.723Z,14.22
2022-10-30T07:23:14.215Z,14.05
2022-10-30T07:25:47.869Z,13.93
2022-10-30T07:28:21.407Z,13.70
2022-10-30T07:30:56.434Z,13.57
2022-10-30T07:33:29.940Z,13.58
2022-10-30T07:36:03.902Z,13.53
2022-10-30T07:38:37.401Z,13.53
2022-10-30T07:41:11.069Z,13.57
2022-10-30T07:43:44.569Z,13.63
2022-10-30T07:46:19.597Z,13.69
2022-10-30T07:48:53.136Z,13.75
2022-10-30T07:51:26.975Z,13.85
2022-10-30T07:54:00.522Z,13.93
2022-10-30T07:56:34.290Z,14.05
2022-10-30T07:59:07.715Z,14.21
2022-10-30T08:01:42.828Z,14.33
2022-10-30T08:04:16.511Z,14.42
2022-10-30T08:06:50.248Z,14.48
2022-10-30T08:09:23.817Z,14.53
2022-10-30T08:11:57.614Z,14.61
2022-10-30T08:14:31.101Z,14.68
2022-10-30T08:17:07.614Z,14.73
2022-10-30T08:19:41.246Z,14.76
2022-10-30T08:22:15.543Z,14.79
2022-10-30T08:24:49.030Z,14.86
2022-10-30T08:27:22.664Z,14.93
2022-10-30T08:29:56.153Z,14.92
2022-10-30T08:32:31.199Z,14.99
2022-10-30T08:35:04.999Z,15.05
2022-10-30T08:37:38.789Z,15.07
2022-10-30T08:40:12.714Z,15.14
2022-10-30T08:42:51.540Z,15.16
2022-10-30T08:45:29.905Z,15.22
2022-10-30T08:48:07.573Z,15.21
2022-10-30T08:50:41.263Z,15.19
2022-10-30T08:53:16.289Z,15.15
2022-10-30T08:55:49.846Z,15.15
2022-10-30T08:58:23.478Z,15.18
2022-10-30T09:01:01.234Z,15.24
2022-10-30T09:03:38.889Z,15.34
2022-10-30T09:06:12.675Z,15.42
2022-10-30T09:08:47.391Z,15.57
2022-10-30T09:11:21.005Z,15.65
2022-10-30T09:13:54.726Z,15.74
2022-10-30T09:16:28.151Z,15.83
2022-10-30T09:19:03.233Z,15.96
2022-10-30T09:21:36.755Z,16.07
2022-10-30T09:24:10.472Z,16.19
2022-10-30T09:26:44.057Z,16.31
2022-10-30T09:29:18.028Z,16.40
2022-10-30T09:31:51.555Z,16.50
2022-10-30T09:37:01.516Z,16.72
2022-10-30T09:39:35.220Z,16.92
2022-10-30T09:42:23.092Z,17.04
2022-10-30T09:45:27.912Z,17.15
2022-10-30T09:48:43.624Z,17.29
2022-10-30T09:51:36.323Z,17.33
2022-10-30T09:54:20.453Z,17.37
2022-10-30T09:57:09.580Z,17.52
2022-10-30T09:59:49.478Z,17.65
2022-10-30T10:02:35.316Z,17.84
2022-10-30T10:05:18.090Z,17.95
2022-10-30T10:07:59.427Z,18.05
2022-10-30T10:10:40.170Z,18.22
2022-10-30T10:13:27.929Z,18.23
2022-10-30T10:16:14.360Z,18.26
2022-10-30T10:18:52.674Z,18.29
2022-10-30T10:21:28.082Z,18.32
2022-10-30T10:24:05.163Z,18.46
2022-10-30T10:26:51.017Z,18.43
2022-10-30T10:29:37.183Z,18.39
2022-10-30T10:32:28.520Z,18.41
2022-10-30T10:35:43.455Z,18.51
2022-10-30T10:38:33.345Z,18.67
2022-10-30T10:41:19.755Z,18.78
2022-10-30T10:44:05.544Z,18.84
2022-10-30T10:46:52.788Z,18.86
2022-10-30T10:49:56.419Z,18.93
2022-10-30T10:52:38.923Z,19.00
2022-10-30T10:55:17.483Z,19.04
2022-10-30T10:57:54.502Z,19.06
2022-10-30T11:00:30.498Z,19.10
2022-10-30T11:03:10.586Z,19.10
2022-10-30T11:05:50.924Z,19.13
2022-10-30T11:08:27.883Z,19.11
2022-10-30T11:11:03.152Z,19.11
2022-10-30T11:13:42.656Z,19.13
2022-10-30T11:16:26.768Z,19.16
2022-10-30T11:19:03.588Z,19.16
2022-10-30T11:21:43.451Z,19.18
2022-10-30T11:24:28.614Z,19.25
2022-10-30T11:27:18.523Z,19.36
2022-10-30T11:29:55.732Z,19.45
2022-10-30T11:32:31.387Z,19.45
2022-10-30T11:35:13.950Z,19.47
2022-10-30T11:37:49.146Z,19.57
2022-10-30T11:40:24.879Z,19.71
2022-10-30T11:43:02.379Z,19.68
2022-10-30T11:45:41.204Z,19.68
2022-10-30T11:48:23.554Z,19.70
2022-10-30T11:51:00.279Z,19.66
2022-10-30T11:53:38.567Z,19.66
2022-10-30T11:56:17.091Z,19.66
2022-10-30T11:58:54.315Z,19.62
2022-10-30T12:01:31.305Z,19.61
2022-10-30T12:04:17.568Z,19.62
2022-10-30T12:06:56.303Z,19.66
2022-10-30T12:09:30.495Z,19.64
2022-10-30T12:12:12.323Z,19.63
2022-10-30T12:14:45.816Z,19.62
2022-10-30T12:17:22.775Z,19.63
2022-10-30T12:19:57.408Z,19.61
2022-10-30T12:22:32.694Z,19.59
2022-10-30T12:25:16.342Z,19.60
2022-10-30T12:27:51.230Z,19.60
2022-10-30T12:30:25.301Z,19.63
2022-10-30T12:33:09.620Z,19.65
2022-10-30T12:35:47.648Z,19.78
2022-10-30T12:38:27.815Z,19.75
2022-10-30T12:41:08.207Z,19.69
2022-10-30T12:43:45.126Z,19.64
2022-10-30T12:46:33.137Z,19.58
2022-10-30T12:49:15.722Z,19.53
2022-10-30T12:51:54.859Z,19.48
2022-10-30T12:54:36.510Z,19.38
2022-10-30T12:57:14.092Z,19.31
2022-10-30T12:59:57.939Z,19.30
2022-10-30T13:02:45.811Z,19.31
2022-10-30T13:05:31.250Z,19.31
2022-10-30T13:08:23.423Z,19.34
2022-10-30T13:11:04.218Z,19.39
2022-10-30T13:13:41.716Z,19.38
2022-10-30T13:16:19.251Z,19.39
2022-10-30T13:18:56.075Z,19.37
2022-10-30T13:21:38.717Z,19.34
2022-10-30T13:24:15.353Z,19.33
2022-10-30T13:26:53.937Z,19.29
2022-10-30T13:29:32.813Z,19.25
2022-10-30T13:32:26.486Z,19.32
2022-10-30T13:35:10.429Z,19.30
2022-10-30T13:37:56.689Z,19.26
2022-10-30T13:40:36.312Z,19.26
2022-10-30T13:43:22.928Z,19.24
2022-10-30T13:46:19.114Z,19.21
2022-10-30T13:49:27.840Z,19.39
2022-10-30T13:52:08.046Z,19.34
2022-10-30T13:54:47.883Z,19.26
2022-10-30T13:57:27.554Z,19.19
2022-10-30T14:00:07.498Z,19.12
2022-10-30T14:02:54.381Z,19.07
2022-10-30T14:05:36.098Z,19.05
2022-10-30T14:08:21.769Z,19.08
2022-10-30T14:11:00.669Z,19.02
2022-10-30T14:13:47.014Z,18.91
2022-10-30T14:16:35.183Z,18.85
2022-10-30T14:19:09.867Z,18.80
2022-10-30T14:21:45.667Z,18.78
2022-10-30T14:24:22.648Z,18.73
2022-10-30T14:27:10.981Z,18.68
2022-10-30T14:29:49.542Z,18.63
2022-10-30T14:32:50.991Z,18.59
2022-10-30T14:35:36.779Z,18.53
2022-10-30T14:38:23.820Z,18.47
2022-10-30T14:41:27.984Z,18.40
2022-10-30T14:44:26.461Z,18.39
2022-10-30T14:47:15.168Z,18.41
2022-10-30T14:49:55.106Z,18.42
2022-10-30T14:52:41.608Z,18.38
2022-10-30T14:55:31.954Z,18.32
2022-10-30T14:58:25.390Z,18.27
2022-10-30T15:01:27.076Z,18.20
2022-10-30T15:04:12.752Z,18.18
2022-10-30T15:06:58.505Z,18.13
2022-10-30T15:09:54.904Z,18.08
2022-10-30T15:12:44.044Z,18.04
2022-10-30T15:15:19.624Z,17.98
2022-10-30T15:17:57.588Z,17.90
2022-10-30T15:20:34.667Z,17.81
2022-10-30T15:23:13.245Z,17.70
2022-10-30T15:25:49.979Z,17.63
2022-10-30T15:28:27.257Z,17.55
2022-10-30T15:31:02.139Z,17.47
2022-10-30T15:33:38.413Z,17.38
2022-10-30T15:36:18.762Z,17.30
2022-10-30T15:39:07.413Z,17.21
2022-10-30T15:41:44.955Z,17.13
2022-10-30T15:44:22.381Z,17.03
2022-10-30T15:46:57.830Z,16.96
2022-10-30T15:49:35.314Z,16.90
2022-10-30T15:52:16.831Z,16.82
2022-10-30T15:54:56.874Z,16.74
2022-10-30T16:00:30.187Z,16.59
2022-10-30T16:03:06.310Z,16.55
2022-10-30T16:05:41.511Z,16.49
2022-10-30T16:08:21.057Z,16.40
2022-10-30T16:10:56.061Z,16.32
2022-10-30T16:13:31.983Z,16.26
2022-10-30T16:16:06.867Z,16.19
2022-10-30T16:18:41.062Z,16.15
2022-10-30T16:21:19.501Z,16.07
2022-10-30T16:23:55.179Z,16.01
2022-10-30T16:26:33.733Z,15.96
2022-10-30T16:29:22.303Z,15.89
2022-10-30T16:31:56.408Z,15.87
2022-10-30T16:34:34.693Z,15.84
2022-10-30T16:37:23.613Z,15.81
2022-10-30T16:39:57.429Z,15.77
2022-10-30T16:42:31.148Z,15.74
2022-10-30T16:45:50.482Z,15.71
2022-10-30T16:48:28.606Z,15.68
2022-10-30T16:51:04.232Z,15.64
2022-10-30T16:53:39.371Z,15.62
2022-10-30T16:56:21.393Z,15.58
2022-10-30T16:58:58.820Z,15.54
2022-10-30T17:01:32.743Z,15.50
2022-10-30T17:04:06.957Z,15.45
2022-10-30T17:06:43.153Z,15.42
2022-10-30T17:09:25.182Z,15.37
2022-10-30T17:12:07.925Z,15.34
2022-10-30T17:14:48.542Z,15.31
2022-10-30T17:17:29.261Z,15.28
2022-10-30T17:20:07.753Z,15.23
2022-10-30T17:22:41.456Z,15.19
2022-10-30T17:25:19.368Z,15.17
2022-10-30T17:27:52.967Z,15.16
2022-10-30T17:30:35.885Z,15.15
2022-10-30T17:33:36.098Z,15.11
2022-10-30T17:36:10.205Z,15.06
2022-10-30T17:38:43.633Z,15.03
2022-10-30T17:41:18.780Z,15.02
2022-10-30T17:43:53.734Z,15.00
2022-10-30T17:46:27.390Z,14.95
2022-10-30T17:49:01.567Z,14.93
2022-10-30T17:51:35.542Z,14.89
2022-10-30T17:54:13.902Z,14.86
2022-10-30T17:56:49.026Z,14.83
2022-10-30T17:59:22.486Z,14.85
2022-10-30T18:01:57.320Z,14.80
2022-10-30T18:04:30.836Z,14.77
2022-10-30T18:07:04.493Z,14.73
2022-10-30T18:09:38.142Z,14.71
2022-10-30T18:12:15.259Z,14.67
2022-10-30T18:14:48.764Z,14.64
2022-10-30T18:17:22.418Z,14.61
2022-10-30T18:19:55.844Z,14.58
2022-10-30T18:22:29.582Z,14.58
2022-10-30T18:25:06.922Z,14.55
2022-10-30T18:27:42.002Z,14.55
2022-10-30T18:30:16.609Z,14.53
2022-10-30T18:32:50.782Z,14.52
2022-10-30T18:35:28.344Z,14.51
2022-10-30T18:38:02.144Z,14.51
2022-10-30T18:40:36.042Z,14.48
2022-10-30T18:43:13.059Z,14.45
2022-10-30T18:45:46.554Z,14.41
2022-10-30T18:48:20.349Z,14.38
2022-10-30T18:50:53.949Z,14.34
2022-10-30T18:53:32.698Z,14.32
2022-10-30T18:56:10.796Z,14.33
2022-10-30T18:58:46.054Z,14.29
2022-10-30T19:01:20.251Z,14.27
2022-10-30T19:03:54.112Z,14.28
2022-10-30T19:06:27.925Z,14.28
2022-10-30T19:09:01.882Z,14.23
2022-10-30T19:11:38.275Z,14.21
2022-10-30T19:14:15.906Z,14.23
2022-10-30T19:16:49.524Z,14.23
2022-10-30T19:19:23.175Z,14.17
2022-10-30T19:21:56.604Z,14.12
2022-10-30T19:24:30.317Z,14.10
2022-10-30T19:27:03.791Z,14.06
2022-10-30T19:29:38.756Z,14.04
2022-10-30T19:32:12.205Z,14.01
2022-10-30T19:34:46.598Z,13.99
2022-10-30T19:37:20.169Z,13.96
2022-10-30T19:39:53.832Z,13.95
2022-10-30T19:42:27.279Z,13.93
2022-10-30T19:45:02.322Z,13.90
2022-10-30T19:47:36.559Z,13.88
2022-10-30T19:50:35.202Z,13.85
2022-10-30T19:53:09.251Z,13.83
2022-10-30T19:55:44.525Z,13.80
2022-10-30T19:58:20.896Z,13.79
2022-10-30T20:01:00.187Z,13.77
2022-10-30T20:03:33.802Z,13.74
2022-10-30T20:06:08.032Z,13.72
2022-10-30T20:08:41.560Z,13.69
2022-10-30T20:11:15.292Z,13.65
2022-10-30T20:13:50.735Z,13.59
2022-10-30T20:16:29.758Z,13.56
2022-10-30T20:19:05.453Z,13.52
2022-10-30T20:21:39.121Z,13.49
2022-10-30T20:24:12.591Z,13.48
2022-10-30T20:26:46.318Z,13.47
2022-10-30T20:29:19.983Z,13.47
2022-10-30T20:31:54.969Z,13.43
2022-10-30T20:34:28.424Z,13.40
2022-10-30T20:37:02.095Z,13.37
2022-10-30T20:39:35.592Z,13.34
2022-10-30T20:42:10.154Z,13.31
2022-10-30T20:44:43.605Z,13.31
2022-10-30T20:47:18.700Z,13.27
2022-10-30T20:49:52.379Z,13.24
2022-10-30T20:52:27.224Z,13.19
2022-10-30T20:55:00.882Z,13.15
2022-10-30T20:57:34.811Z,13.12
2022-10-30T21:00:10.468Z,13.09
2022-10-30T21:02:45.877Z,13.08
2022-10-30T21:05:42.255Z,13.05
2022-10-30T21:08:13.385Z,13.04
2022-10-30T21:10:46.895Z,13.04
2022-10-30T21:13:20.623Z,13.04
2022-10-30T21:15:54.084Z,13.03
2022-10-30T21:18:29.333Z,13.01
2022-10-30T21:21:03.905Z,12.98
2022-10-30T21:23:37.594Z,12.98
2022-10-30T21:26:12.054Z,12.97
2022-10-30T21:28:45.757Z,12.95
2022-10-30T21:31:19.262Z,12.94
2022-10-30T21:33:54.341Z,12.92
2022-10-30T21:36:28.091Z,12.89
2022-10-30T21:39:01.823Z,12.86
2022-10-30T21:41:35.514Z,12.84
2022-10-30T21:44:10.590Z,12.83
2022-10-30T21:46:44.141Z,12.81
2022-10-30T21:49:19.452Z,12.80
2022-10-30T21:51:53.004Z,12.77
2022-10-30T21:54:26.736Z,12.76
2022-10-30T21:57:00.306Z,12.74
2022-10-30T21:59:34.115Z,12.71
2022-10-30T22:02:07.952Z,12.69
2022-10-30T22:04:43.110Z,12.67
2022-10-30T22:07:18.680Z,12.65
2022-10-30T22:09:53.504Z,12.64
2022-10-30T22:12:27.073Z,12.65
2022-10-30T22:15:00.780Z,12.60
2022-10-30T22:17:35.137Z,12.57
2022-10-30T22:20:12.225Z,12.55
2022-10-30T22:22:45.739Z,12.53
2022-10-30T22:25:19.579Z,12.49
2022-10-30T22:27:53.190Z,12.45
2022-10-30T22:30:26.944Z,12.42
2022-10-30T22:33:00.814Z,12.41
2022-10-30T22:35:38.561Z,12.39
2022-10-30T22:38:12.894Z,12.39
2022-10-30T22:40:46.616Z,12.38
2022-10-30T22:43:20.227Z,12.39
2022-10-30T22:45:54.565Z,12.37
2022-10-30T22:48:28.999Z,12.35
2022-10-30T22:51:08.485Z,12.34
2022-10-30T22:53:46.136Z,12.34
2022-10-30T22:56:23.932Z,12.32
2022-10-30T22:58:57.955Z,12.30
2022-10-30T23:01:33.840Z,12.28
2022-10-30T23:04:09.006Z,12.26
2022-10-30T23:06:44.842Z,12.22
2022-10-30T23:09:22.114Z,12.20
2022-10-30T23:11:55.788Z,12.19
2022-10-30T23:14:29.264Z,12.15
2022-10-30T23:17:03.011Z,12.13
2022-10-30T23:19:36.539Z,12.11
2022-10-30T23:22:11.605Z,12.10
2022-10-30T23:24:45.143Z,12.08
2022-10-30T23:27:18.905Z,12.06
2022-10-30T23:29:52.351Z,12.06
2022-10-30T23:32:26.099Z,12.04
2022-10-30T23:34:59.478Z,12.05
2022-10-30T23:37:34.597Z,12.03
2022-10-30T23:40:09.539Z,12.02
2022-10-30T23:42:43.245Z,12.01
2022-10-30T23:45:16.739Z,12.00
2022-10-30T23:47:50.559Z,12.00
2022-10-30T23:50:24.103Z,12.00
2022-10-30T23:52:59.258Z,11.99
2022-10-30T23:55:32.815Z,11.99
2022-10-30T23:58:06.927Z,11.99
